createdAt,value
2018-09-17T00:01:54.830Z,65.50
2018-09-17T00:04:23.447Z,65.60
2018-09-17T00:06:52.183Z,65.50
2018-09-17T00:09:20.670Z,65.30
2018-09-17T00:11:49.475Z,65.20
2018-09-17T00:14:17.992Z,65.30
2018-09-17T00:16:47.428Z,65.30
2018-09-17T00:19:16.007Z,65.40
2018-09-17T00:21:44.853Z,65.50
2018-09-17T00:24:13.623Z,65.50
2018-09-17T00:26:42.375Z,65.40
2018-09-17T00:29:10.954Z,65.10
2018-09-17T00:31:39.503Z,66.50
2018-09-17T00:34:08.116Z,65.30
2018-09-17T00:36:36.701Z,65.10
2018-09-17T00:39:09.699Z,64.90
2018-09-17T00:41:38.235Z,64.80
2018-09-17T00:44:07.664Z,64.80
2018-09-17T00:46:36.463Z,64.90
2018-09-17T00:49:05.137Z,64.20
2018-09-17T00:51:33.718Z,64.10
2018-09-17T00:54:02.592Z,64.20
2018-09-17T00:56:31.331Z,64.20
2018-09-17T00:59:00.696Z,63.80
2018-09-17T01:01:29.260Z,64.20
2018-09-17T01:03:57.812Z,64.20
2018-09-17T01:06:26.453Z,64.60
2018-09-17T01:08:55.493Z,64.50
2018-09-17T01:11:25.012Z,64.50
2018-09-17T01:13:53.572Z,65.20
2018-09-17T01:16:22.647Z,65.30
2018-09-17T01:18:51.673Z,64.80
2018-09-17T01:21:20.315Z,65.00
2018-09-17T01:23:49.111Z,65.40
2018-09-17T01:26:17.754Z,64.70
2018-09-17T01:28:46.250Z,64.80
2018-09-17T01:31:14.840Z,65.10
2018-09-17T01:33:43.751Z,65.80
2018-09-17T01:36:12.731Z,65.20
2018-09-17T01:38:41.264Z,65.20
2018-09-17T01:41:09.889Z,65.20
2018-09-17T01:43:38.672Z,65.60
2018-09-17T01:46:07.315Z,65.70
2018-09-17T01:48:35.933Z,65.60
2018-09-17T01:51:05.533Z,65.70
2018-09-17T01:53:34.064Z,66.00
2018-09-17T01:56:03.359Z,66.00
2018-09-17T01:58:34.243Z,66.00
2018-09-17T02:01:02.964Z,66.00
2018-09-17T02:03:32.183Z,65.90
2018-09-17T02:06:01.179Z,65.90
2018-09-17T02:08:29.776Z,66.10
2018-09-17T02:10:58.768Z,65.90
2018-09-17T02:13:28.409Z,65.60
2018-09-17T02:15:57.428Z,65.20
2018-09-17T02:18:26.318Z,65.10
2018-09-17T02:20:56.190Z,65.40
2018-09-17T02:23:25.122Z,65.50
2018-09-17T02:25:53.951Z,65.50
2018-09-17T02:28:23.912Z,65.70
2018-09-17T02:30:52.796Z,65.60
2018-09-17T02:33:21.399Z,65.80
2018-09-17T02:35:50.675Z,65.70
2018-09-17T02:38:19.272Z,65.70
2018-09-17T02:40:47.807Z,65.60
2018-09-17T02:43:16.547Z,65.40
2018-09-17T02:45:45.496Z,65.50
2018-09-17T02:48:14.177Z,65.60
2018-09-17T02:50:42.920Z,65.70
2018-09-17T02:53:11.801Z,66.00
2018-09-17T02:55:40.444Z,65.90
2018-09-17T02:58:10.185Z,66.00
2018-09-17T03:00:39.139Z,65.90
2018-09-17T03:03:07.774Z,66.70
2018-09-17T03:05:36.394Z,65.80
2018-09-17T03:08:05.370Z,65.50
2018-09-17T03:10:34.013Z,65.60
2018-09-17T03:13:03.397Z,65.60
2018-09-17T03:15:43.140Z,65.50
2018-09-17T03:18:11.781Z,65.60
2018-09-17T03:20:40.648Z,65.80
2018-09-17T03:23:10.020Z,65.80
2018-09-17T03:25:39.115Z,65.60
2018-09-17T03:28:07.831Z,65.40
2018-09-17T03:30:36.575Z,65.30
2018-09-17T03:33:05.728Z,65.50
2018-09-17T03:35:34.210Z,65.60
2018-09-17T03:38:39.558Z,65.50
2018-09-17T03:41:09.219Z,65.20
2018-09-17T03:43:38.892Z,65.70
2018-09-17T03:46:07.483Z,65.90
2018-09-17T03:48:37.148Z,66.10
2018-09-17T03:51:07.453Z,66.60
2018-09-17T03:53:36.619Z,66.40
2018-09-17T03:56:06.568Z,66.20
2018-09-17T03:58:35.249Z,66.10
2018-09-17T04:01:04.445Z,65.70
2018-09-17T04:03:33.097Z,65.40
2018-09-17T04:06:02.101Z,65.40
2018-09-17T04:08:31.707Z,65.40
2018-09-17T04:11:01.090Z,65.30
2018-09-17T04:13:29.800Z,65.50
2018-09-17T04:15:58.666Z,65.70
2018-09-17T04:18:27.498Z,65.50
2018-09-17T04:20:56.208Z,65.60
2018-09-17T04:23:34.135Z,65.70
2018-09-17T04:26:04.242Z,65.50
2018-09-17T04:28:33.489Z,65.50
2018-09-17T04:31:02.069Z,65.50
2018-09-17T04:33:33.179Z,65.50
2018-09-17T04:36:01.714Z,65.70
2018-09-17T04:38:30.320Z,65.60
2018-09-17T04:40:59.292Z,65.70
2018-09-17T04:43:28.286Z,65.50
2018-09-17T04:45:57.166Z,65.50
2018-09-17T04:48:26.456Z,65.20
2018-09-17T04:50:55.865Z,65.20
2018-09-17T04:53:25.390Z,64.80
2018-09-17T04:55:54.074Z,64.60
2018-09-17T04:58:23.219Z,64.60
2018-09-17T05:00:52.198Z,64.90
2018-09-17T05:03:21.475Z,65.00
2018-09-17T05:05:51.465Z,64.90
2018-09-17T05:08:20.180Z,65.10
2018-09-17T05:10:48.872Z,65.40
2018-09-17T05:13:18.107Z,65.20
2018-09-17T05:15:47.707Z,65.20
2018-09-17T05:18:16.918Z,65.50
2018-09-17T05:20:46.020Z,65.50
2018-09-17T05:23:14.787Z,65.50
2018-09-17T05:25:44.559Z,65.40
2018-09-17T05:28:14.632Z,65.30
2018-09-17T05:30:45.210Z,65.50
2018-09-17T05:33:14.409Z,65.70
2018-09-17T05:35:43.075Z,66.90
2018-09-17T05:38:11.728Z,66.00
2018-09-17T05:40:41.988Z,66.20
2018-09-17T05:43:11.389Z,65.90
2018-09-17T05:45:39.895Z,65.70
2018-09-17T05:48:09.315Z,65.70
2018-09-17T05:50:40.287Z,66.10
2018-09-17T05:53:10.995Z,66.20
2018-09-17T05:55:40.255Z,66.70
2018-09-17T05:58:09.651Z,66.60
2018-09-17T06:00:39.142Z,66.40
2018-09-17T06:03:07.705Z,66.50
2018-09-17T06:05:36.544Z,66.70
2018-09-17T06:08:05.664Z,67.20
2018-09-17T06:10:35.069Z,66.50
2018-09-17T06:13:04.397Z,66.40
2018-09-17T06:15:33.247Z,66.50
2018-09-17T06:18:01.985Z,66.40
2018-09-17T06:20:32.029Z,67.00
2018-09-17T06:23:00.804Z,66.20
2018-09-17T06:25:29.714Z,66.30
2018-09-17T06:27:59.316Z,66.20
2018-09-17T06:30:28.180Z,66.10
2018-09-17T06:32:57.791Z,66.20
2018-09-17T06:35:26.683Z,66.60
2018-09-17T06:37:56.000Z,66.90
2018-09-17T06:40:25.208Z,66.70
2018-09-17T06:42:54.536Z,66.70
2018-09-17T06:45:24.735Z,66.90
2018-09-17T06:47:53.467Z,66.90
2018-09-17T06:50:22.272Z,66.70
2018-09-17T06:52:50.864Z,67.00
2018-09-17T06:55:19.871Z,67.30
2018-09-17T06:57:48.805Z,67.20
2018-09-17T07:00:17.851Z,67.10
2018-09-17T07:02:47.637Z,66.70
2018-09-17T07:05:16.248Z,66.20
2018-09-17T07:07:45.082Z,66.30
2018-09-17T07:10:13.786Z,66.30
2018-09-17T07:12:43.434Z,66.40
2018-09-17T07:15:12.948Z,66.50
2018-09-17T07:17:42.099Z,66.30
2018-09-17T07:20:11.410Z,66.10
2018-09-17T07:22:40.199Z,66.30
2018-09-17T07:25:09.350Z,65.80
2018-09-17T07:27:39.668Z,65.10
2018-09-17T07:30:08.893Z,64.50
2018-09-17T07:32:37.570Z,64.00
2018-09-17T07:35:07.060Z,63.40
2018-09-17T07:37:36.361Z,62.70
2018-09-17T07:40:05.656Z,62.30
2018-09-17T07:42:34.466Z,62.00
2018-09-17T07:45:03.472Z,62.10
2018-09-17T07:47:32.599Z,62.10
2018-09-17T07:50:01.483Z,61.70
2018-09-17T07:52:30.301Z,61.30
2018-09-17T07:54:59.133Z,60.80
2018-09-17T07:57:29.006Z,60.70
2018-09-17T07:59:57.947Z,60.60
2018-09-17T08:02:28.179Z,60.40
2018-09-17T08:04:56.959Z,60.40
2018-09-17T08:07:26.170Z,60.20
2018-09-17T08:09:55.799Z,60.10
2018-09-17T08:12:25.388Z,59.80
2018-09-17T08:14:54.250Z,59.50
2018-09-17T08:17:23.188Z,59.30
2018-09-17T08:19:51.949Z,59.10
2018-09-17T08:22:21.276Z,59.30
2018-09-17T08:24:50.110Z,59.20
2018-09-17T08:27:19.019Z,59.30
2018-09-17T08:29:48.723Z,59.30
2018-09-17T08:32:17.474Z,59.40
2018-09-17T08:34:46.984Z,59.50
2018-09-17T08:37:16.816Z,59.30
2018-09-17T08:39:46.317Z,59.30
2018-09-17T08:42:15.803Z,59.40
2018-09-17T08:44:44.503Z,59.20
2018-09-17T08:47:13.344Z,59.40
2018-09-17T08:49:43.401Z,59.30
2018-09-17T08:52:12.388Z,59.30
2018-09-17T08:54:46.426Z,58.90
2018-09-17T08:57:20.151Z,58.60
2018-09-17T08:59:54.450Z,58.60
2018-09-17T09:02:28.643Z,58.50
2018-09-17T09:05:02.821Z,58.50
2018-09-17T09:07:35.856Z,58.80
2018-09-17T09:10:10.855Z,58.80
2018-09-17T09:12:40.284Z,58.70
2018-09-17T09:15:14.514Z,58.50
2018-09-17T09:17:43.112Z,58.50
2018-09-17T09:20:11.913Z,58.50
2018-09-17T09:22:40.787Z,58.60
2018-09-17T09:25:09.515Z,58.50
2018-09-17T09:27:38.723Z,58.50
2018-09-17T09:30:09.602Z,58.40
2018-09-17T09:32:38.440Z,58.30
2018-09-17T09:35:07.724Z,58.30
2018-09-17T09:37:36.964Z,58.50
2018-09-17T09:40:06.225Z,58.50
2018-09-17T09:42:35.541Z,58.30
2018-09-17T09:45:04.773Z,58.20
2018-09-17T09:47:36.877Z,58.20
2018-09-17T09:50:06.365Z,58.20
2018-09-17T09:52:35.812Z,58.20
2018-09-17T09:55:05.087Z,58.30
2018-09-17T09:57:33.728Z,58.70
2018-09-17T10:00:02.862Z,58.60
2018-09-17T10:02:37.684Z,58.40
2018-09-17T10:05:06.491Z,58.50
2018-09-17T10:07:35.562Z,58.50
2018-09-17T10:10:10.084Z,58.20
2018-09-17T10:12:44.422Z,58.30
2018-09-17T10:15:15.720Z,58.30
2018-09-17T10:17:50.670Z,58.00
2018-09-17T10:20:19.743Z,57.10
2018-09-17T10:22:50.082Z,57.40
2018-09-17T10:25:19.067Z,57.30
2018-09-17T10:27:48.804Z,57.40
2018-09-17T10:30:17.664Z,57.60
2018-09-17T10:32:47.395Z,56.80
2018-09-17T10:35:17.541Z,57.20
2018-09-17T10:37:47.167Z,56.30
2018-09-17T10:40:16.292Z,56.50
2018-09-17T10:42:45.135Z,56.50
2018-09-17T10:45:13.678Z,56.20
2018-09-17T10:47:42.349Z,54.80
2018-09-17T10:50:11.420Z,53.80
2018-09-17T10:52:41.405Z,53.60
2018-09-17T10:55:10.179Z,50.10
2018-09-17T10:57:41.207Z,47.40
2018-09-17T11:00:10.559Z,48.90
2018-09-17T11:02:41.158Z,47.30
2018-09-17T11:05:09.796Z,47.70
2018-09-17T11:07:38.589Z,46.10
2018-09-17T11:10:07.702Z,45.10
2018-09-17T11:12:36.963Z,41.00
2018-09-17T11:15:06.543Z,44.00
2018-09-17T11:17:36.308Z,40.10
2018-09-17T11:20:05.216Z,41.20
2018-09-17T11:22:34.330Z,40.20
2018-09-17T11:25:03.358Z,40.70
2018-09-17T11:27:33.259Z,42.60
2018-09-17T11:30:02.128Z,41.00
2018-09-17T11:32:31.476Z,38.40
2018-09-17T11:35:00.632Z,38.10
2018-09-17T11:37:29.342Z,40.40
2018-09-17T11:39:58.214Z,39.60
2018-09-17T11:42:27.205Z,38.40
2018-09-17T11:44:56.311Z,39.20
2018-09-17T11:47:25.504Z,40.70
2018-09-17T11:49:56.033Z,41.10
2018-09-17T11:52:24.902Z,41.20
2018-09-17T11:54:54.527Z,40.30
2018-09-17T11:57:25.081Z,39.90
2018-09-17T11:59:56.789Z,41.00
2018-09-17T12:02:31.319Z,40.50
2018-09-17T12:05:05.417Z,40.10
2018-09-17T12:07:36.551Z,39.00
2018-09-17T12:10:06.406Z,37.10
2018-09-17T12:12:35.416Z,35.70
2018-09-17T12:15:04.820Z,38.50
2018-09-17T12:17:34.606Z,38.90
2018-09-17T12:20:04.439Z,34.40
2018-09-17T12:22:34.474Z,37.00
2018-09-17T12:25:03.560Z,38.10
2018-09-17T12:27:32.795Z,36.90
2018-09-17T12:30:01.683Z,36.00
2018-09-17T12:32:31.248Z,38.00
2018-09-17T12:35:00.486Z,40.00
2018-09-17T12:37:29.234Z,37.90
2018-09-17T12:39:58.743Z,36.40
2018-09-17T12:42:29.489Z,38.50
2018-09-17T12:44:58.489Z,38.40
2018-09-17T12:47:29.343Z,36.00
2018-09-17T12:49:58.490Z,37.50
2018-09-17T12:52:28.231Z,36.70
2018-09-17T12:54:57.706Z,38.30
2018-09-17T12:57:26.623Z,35.50
2018-09-17T12:59:55.504Z,34.60
2018-09-17T13:02:24.502Z,36.50
2018-09-17T13:04:54.399Z,36.20
2018-09-17T13:07:23.595Z,36.40
2018-09-17T13:09:53.703Z,37.40
2018-09-17T13:12:22.346Z,36.90
2018-09-17T13:14:51.442Z,36.40
2018-09-17T13:17:20.906Z,37.20
2018-09-17T13:19:49.637Z,36.20
2018-09-17T13:22:19.358Z,35.50
2018-09-17T13:24:49.256Z,36.10
2018-09-17T13:27:19.468Z,36.00
2018-09-17T13:29:48.044Z,34.60
2018-09-17T13:32:18.276Z,37.00
2018-09-17T13:34:47.879Z,35.30
2018-09-17T13:37:18.395Z,37.60
2018-09-17T13:39:49.704Z,38.60
2018-09-17T13:42:19.861Z,36.50
2018-09-17T13:44:48.552Z,35.70
2018-09-17T13:47:18.055Z,35.90
2018-09-17T13:49:47.995Z,37.00
2018-09-17T13:52:17.632Z,37.80
2018-09-17T13:54:46.484Z,38.20
2018-09-17T13:57:15.529Z,37.20
2018-09-17T13:59:45.124Z,36.80
2018-09-17T14:02:13.827Z,37.90
2018-09-17T14:04:42.891Z,36.80
2018-09-17T14:07:12.628Z,38.70
2018-09-17T14:09:42.504Z,38.90
2018-09-17T14:12:11.237Z,39.10
2018-09-17T14:14:41.074Z,38.90
2018-09-17T14:17:11.102Z,39.60
2018-09-17T14:19:40.491Z,37.00
2018-09-17T14:22:10.777Z,37.30
2018-09-17T14:24:41.221Z,38.10
2018-09-17T14:27:10.566Z,38.60
2018-09-17T14:29:40.733Z,39.20
2018-09-17T14:32:14.903Z,38.90
2018-09-17T14:34:43.875Z,39.30
2018-09-17T14:37:12.943Z,40.80
2018-09-17T14:39:43.216Z,41.00
2018-09-17T14:42:12.285Z,40.20
2018-09-17T14:44:41.253Z,40.60
2018-09-17T14:47:10.478Z,41.10
2018-09-17T14:49:39.880Z,40.50
2018-09-17T14:52:10.079Z,40.80
2018-09-17T14:54:38.950Z,39.80
2018-09-17T14:57:08.716Z,38.40
2018-09-17T14:59:37.477Z,39.40
2018-09-17T15:02:06.815Z,38.30
2018-09-17T15:04:35.597Z,39.40
2018-09-17T15:07:05.132Z,39.40
2018-09-17T15:09:33.842Z,39.30
2018-09-17T15:12:02.677Z,39.80
2018-09-17T15:14:31.679Z,40.00
2018-09-17T15:17:00.457Z,40.40
2018-09-17T15:19:29.721Z,40.50
2018-09-17T15:21:58.446Z,39.90
2018-09-17T15:24:27.193Z,40.50
2018-09-17T15:26:55.924Z,40.50
2018-09-17T15:29:24.837Z,40.90
2018-09-17T15:32:05.782Z,40.30
2018-09-17T15:34:34.555Z,40.80
2018-09-17T15:37:04.407Z,40.60
2018-09-17T15:39:32.927Z,40.90
2018-09-17T15:42:01.534Z,40.90
2018-09-17T15:44:30.238Z,40.40
2018-09-17T15:46:59.876Z,40.20
2018-09-17T15:49:28.561Z,39.90
2018-09-17T15:51:57.378Z,40.90
2018-09-17T15:54:26.471Z,41.20
2018-09-17T15:56:55.431Z,39.90
2018-09-17T15:59:24.391Z,39.70
2018-09-17T16:01:53.245Z,40.50
2018-09-17T16:04:22.097Z,40.40
2018-09-17T16:06:50.727Z,40.10
2018-09-17T16:09:20.308Z,40.00
2018-09-17T16:11:50.213Z,40.60
2018-09-17T16:14:18.851Z,40.50
2018-09-17T16:17:00.300Z,41.00
2018-09-17T16:19:29.896Z,40.80
2018-09-17T16:21:58.519Z,40.80
2018-09-17T16:24:27.894Z,40.90
2018-09-17T16:26:56.467Z,40.60
2018-09-17T16:29:25.256Z,40.60
2018-09-17T16:31:53.946Z,40.50
2018-09-17T16:34:22.768Z,40.10
2018-09-17T16:36:51.317Z,40.50
2018-09-17T16:39:20.270Z,40.60
2018-09-17T16:41:49.077Z,40.50
2018-09-17T16:44:18.175Z,41.60
2018-09-17T16:46:47.665Z,42.10
2018-09-17T16:49:18.235Z,42.30
2018-09-17T16:51:47.875Z,42.30
2018-09-17T16:54:16.522Z,42.80
2018-09-17T16:56:45.198Z,43.10
2018-09-17T16:59:14.803Z,43.20
2018-09-17T17:01:43.411Z,43.60
2018-09-17T17:04:12.768Z,43.80
2018-09-17T17:06:41.454Z,44.20
2018-09-17T17:09:12.007Z,44.80
2018-09-17T17:11:40.684Z,45.10
2018-09-17T17:14:10.403Z,44.00
2018-09-17T17:16:39.227Z,43.90
2018-09-17T17:19:08.305Z,44.60
2018-09-17T17:21:37.233Z,45.60
2018-09-17T17:24:07.880Z,45.90
2018-09-17T17:26:36.987Z,45.90
2018-09-17T17:29:05.733Z,46.80
2018-09-17T17:31:34.807Z,46.50
2018-09-17T17:34:03.641Z,46.70
2018-09-17T17:36:32.506Z,47.10
2018-09-17T17:39:01.350Z,47.70
2018-09-17T17:41:30.082Z,47.90
2018-09-17T17:43:58.864Z,48.00
2018-09-17T17:46:28.092Z,48.30
2018-09-17T17:48:56.967Z,48.50
2018-09-17T17:51:26.236Z,48.70
2018-09-17T17:53:55.105Z,48.40
2018-09-17T17:56:23.915Z,49.00
2018-09-17T17:58:52.564Z,49.10
2018-09-17T18:01:21.841Z,48.70
2018-09-17T18:03:51.018Z,48.00
2018-09-17T18:06:21.191Z,48.80
2018-09-17T18:08:49.808Z,49.60
2018-09-17T18:11:19.782Z,49.40
2018-09-17T18:13:48.403Z,50.10
2018-09-17T18:16:17.426Z,49.70
2018-09-17T18:18:46.768Z,49.70
2018-09-17T18:21:15.827Z,49.60
2018-09-17T18:23:44.584Z,49.60
2018-09-17T18:26:13.652Z,49.30
2018-09-17T18:28:42.297Z,48.90
2018-09-17T18:31:10.929Z,49.00
2018-09-17T18:33:40.115Z,49.20
2018-09-17T18:36:08.855Z,49.30
2018-09-17T18:38:37.680Z,48.60
2018-09-17T18:41:06.364Z,48.80
2018-09-17T18:43:35.564Z,48.90
2018-09-17T18:46:04.506Z,49.10
2018-09-17T18:48:33.192Z,49.20
2018-09-17T18:51:02.001Z,49.30
2018-09-17T18:53:31.141Z,49.60
2018-09-17T18:55:59.821Z,49.80
2018-09-17T18:58:30.282Z,49.80
2018-09-17T19:00:59.147Z,49.70
2018-09-17T19:03:28.035Z,49.90
2018-09-17T19:05:57.316Z,50.60
2018-09-17T19:08:25.911Z,51.00
2018-09-17T19:10:54.841Z,51.10
2018-09-17T19:13:24.132Z,51.30
2018-09-17T19:15:54.663Z,51.60
2018-09-17T19:18:24.407Z,51.70
2018-09-17T19:20:53.596Z,51.80
2018-09-17T19:23:27.419Z,52.10
2018-09-17T19:25:57.022Z,52.10
2018-09-17T19:28:30.969Z,52.10
2018-09-17T19:30:59.974Z,52.20
2018-09-17T19:33:29.020Z,52.20
2018-09-17T19:35:58.265Z,52.50
2018-09-17T19:38:32.180Z,52.60
2018-09-17T19:41:01.115Z,52.10
2018-09-17T19:43:30.322Z,51.80
2018-09-17T19:46:05.143Z,51.60
2018-09-17T19:48:33.943Z,51.70
2018-09-17T19:51:08.268Z,51.80
2018-09-17T19:53:37.143Z,52.20
2018-09-17T19:56:06.139Z,52.60
2018-09-17T19:58:40.323Z,52.70
2018-09-17T20:01:09.099Z,52.60
2018-09-17T20:03:38.148Z,52.80
2018-09-17T20:06:12.160Z,52.80
2018-09-17T20:08:40.824Z,53.00
2018-09-17T20:11:10.132Z,53.10
2018-09-17T20:13:38.868Z,53.10
2018-09-17T20:16:08.001Z,53.10
2018-09-17T20:18:36.663Z,53.00
2018-09-17T20:21:05.933Z,53.20
2018-09-17T20:23:35.006Z,52.80
2018-09-17T20:26:03.704Z,52.90
2018-09-17T20:28:32.483Z,53.00
2018-09-17T20:31:01.437Z,52.80
2018-09-17T20:33:32.524Z,52.90
2018-09-17T20:36:01.470Z,53.20
2018-09-17T20:38:30.089Z,53.40
2018-09-17T20:40:59.211Z,53.40
2018-09-17T20:43:28.297Z,53.70
2018-09-17T20:45:57.427Z,53.70
2018-09-17T20:48:26.436Z,54.00
2018-09-17T20:50:54.957Z,53.90
2018-09-17T20:53:23.905Z,53.90
2018-09-17T20:57:17.132Z,53.90
2018-09-17T20:59:46.011Z,53.90
2018-09-17T21:02:14.935Z,54.50
2018-09-17T21:04:43.630Z,54.50
2018-09-17T21:07:12.486Z,54.30
2018-09-17T21:09:41.323Z,54.10
2018-09-17T21:12:09.903Z,53.80
2018-09-17T21:14:38.604Z,53.70
2018-09-17T21:17:07.228Z,53.60
2018-09-17T21:19:37.378Z,53.90
2018-09-17T21:22:06.062Z,53.80
2018-09-17T21:24:34.723Z,53.60
2018-09-17T21:27:03.413Z,53.90
2018-09-17T21:29:32.098Z,53.90
2018-09-17T21:32:00.724Z,54.20
2018-09-17T21:34:29.494Z,54.20
2018-09-17T21:36:58.479Z,54.60
2018-09-17T21:39:27.372Z,54.90
2018-09-17T21:41:56.464Z,55.00
2018-09-17T21:44:25.183Z,55.20
2018-09-17T21:46:53.953Z,55.30
2018-09-17T21:49:22.717Z,55.30
2018-09-17T21:51:51.419Z,55.40
2018-09-17T21:54:20.327Z,55.40
2018-09-17T21:56:48.939Z,55.10
2018-09-17T21:59:17.563Z,55.20
2018-09-17T22:01:46.388Z,55.20
2018-09-17T22:04:15.262Z,55.10
2018-09-17T22:06:44.057Z,55.10
2018-09-17T22:09:12.928Z,54.80
2018-09-17T22:11:41.679Z,54.90
2018-09-17T22:14:10.318Z,55.10
2018-09-17T22:16:39.015Z,55.30
2018-09-17T22:19:07.687Z,55.50
2018-09-17T22:21:36.788Z,55.70
2018-09-17T22:24:06.431Z,55.70
2018-09-17T22:26:35.486Z,55.50
2018-09-17T22:29:04.588Z,55.50
2018-09-17T22:31:33.469Z,55.70
2018-09-17T22:34:02.430Z,55.90
2018-09-17T22:36:31.515Z,55.90
2018-09-17T22:39:00.102Z,55.90
2018-09-17T22:41:28.731Z,55.80
2018-09-17T22:43:57.379Z,55.90
2018-09-17T22:46:26.127Z,55.90
2018-09-17T22:48:55.998Z,56.10
2018-09-17T22:51:26.433Z,56.20
2018-09-17T22:53:55.202Z,56.20
2018-09-17T22:56:23.798Z,56.00
2018-09-17T22:58:53.675Z,56.20
2018-09-17T23:01:22.236Z,56.10
2018-09-17T23:03:51.738Z,56.20
2018-09-17T23:06:20.919Z,56.40
2018-09-17T23:08:49.826Z,56.60
2018-09-17T23:11:18.523Z,56.60
2018-09-17T23:13:47.369Z,56.50
2018-09-17T23:16:15.991Z,56.60
2018-09-17T23:18:44.982Z,56.50
2018-09-17T23:21:13.659Z,56.50
2018-09-17T23:23:42.208Z,56.40
2018-09-17T23:26:11.092Z,56.40
2018-09-17T23:28:39.728Z,56.30
2018-09-17T23:31:08.281Z,56.40
2018-09-17T23:33:37.178Z,56.50
2018-09-17T23:36:06.457Z,56.50
2018-09-17T23:38:35.334Z,56.50
2018-09-17T23:41:04.049Z,56.40
2018-09-17T23:43:33.730Z,56.30
2018-09-17T23:46:02.686Z,56.20
2018-09-17T23:48:31.549Z,56.20
2018-09-17T23:51:00.420Z,56.30
2018-09-17T23:53:28.954Z,56.30
2018-09-17T23:55:57.711Z,56.30
2018-09-17T23:58:27.005Z,56.50
